sensor_id;sensor_type;location;lat;lon;timestamp;P1;durP1;ratioP1;P2;durP2;ratioP2
2570;SDS011;1295;51.130;6.732;2022-08-03T00:02:14;64.03;;;31.03;;
2570;SDS011;1295;51.130;6.732;2022-08-03T00:04:40;72.03;;;42.07;;
2570;SDS011;1295;51.130;6.732;2022-08-03T00:07:05;63.67;;;33.20;;
2570;SDS011;1295;51.130;6.732;2022-08-03T00:09:32;66.97;;;34.43;;
2570;SDS011;1295;51.130;6.732;2022-08-03T00:11:57;67.20;;;39.13;;
2570;SDS011;1295;51.130;6.732;2022-08-03T00:14:24;66.23;;;35.87;;
2570;SDS011;1295;51.130;6.732;2022-08-03T00:16:50;65.50;;;37.60;;
2570;SDS011;1295;51.130;6.732;2022-08-03T00:19:15;66.47;;;34.57;;
2570;SDS011;1295;51.130;6.732;2022-08-03T00:21:41;63.77;;;32.20;;
2570;SDS011;1295;51.130;6.732;2022-08-03T00:24:07;65.53;;;32.23;;
2570;SDS011;1295;51.130;6.732;2022-08-03T00:26:33;64.70;;;30.80;;
2570;SDS011;1295;51.130;6.732;2022-08-03T00:28:59;65.50;;;33.77;;
2570;SDS011;1295;51.130;6.732;2022-08-03T00:31:35;63.77;;;29.97;;
2570;SDS011;1295;51.130;6.732;2022-08-03T00:34:01;63.37;;;30.87;;
2570;SDS011;1295;51.130;6.732;2022-08-03T00:36:26;62.53;;;28.07;;
2570;SDS011;1295;51.130;6.732;2022-08-03T00:38:52;68.67;;;38.87;;
2570;SDS011;1295;51.130;6.732;2022-08-03T00:41:18;65.47;;;31.53;;
2570;SDS011;1295;51.130;6.732;2022-08-03T00:43:44;63.70;;;27.73;;
2570;SDS011;1295;51.130;6.732;2022-08-03T00:46:10;67.57;;;33.97;;
2570;SDS011;1295;51.130;6.732;2022-08-03T00:48:35;68.43;;;40.07;;
2570;SDS011;1295;51.130;6.732;2022-08-03T00:51:01;70.13;;;39.83;;
2570;SDS011;1295;51.130;6.732;2022-08-03T00:53:27;66.50;;;36.57;;
2570;SDS011;1295;51.130;6.732;2022-08-03T00:55:53;66.80;;;33.77;;
2570;SDS011;1295;51.130;6.732;2022-08-03T00:58:18;70.00;;;41.17;;
2570;SDS011;1295;51.130;6.732;2022-08-03T01:00:51;69.80;;;40.13;;
2570;SDS011;1295;51.130;6.732;2022-08-03T01:03:17;68.50;;;37.07;;
2570;SDS011;1295;51.130;6.732;2022-08-03T01:06:16;67.87;;;35.23;;
2570;SDS011;1295;51.130;6.732;2022-08-03T01:11:04;67.30;;;36.67;;
2570;SDS011;1295;51.130;6.732;2022-08-03T01:13:28;67.70;;;36.77;;
2570;SDS011;1295;51.130;6.732;2022-08-03T01:16:06;68.20;;;35.97;;
2570;SDS011;1295;51.130;6.732;2022-08-03T01:18:35;66.87;;;39.77;;
2570;SDS011;1295;51.130;6.732;2022-08-03T01:21:01;67.80;;;35.57;;
2570;SDS011;1295;51.130;6.732;2022-08-03T01:24:34;67.77;;;37.33;;
2570;SDS011;1295;51.130;6.732;2022-08-03T01:29:06;65.10;;;32.27;;
2570;SDS011;1295;51.130;6.732;2022-08-03T01:31:31;65.37;;;32.50;;
2570;SDS011;1295;51.130;6.732;2022-08-03T01:33:56;69.93;;;42.53;;
2570;SDS011;1295;51.130;6.732;2022-08-03T01:36:22;68.43;;;40.37;;
2570;SDS011;1295;51.130;6.732;2022-08-03T01:38:49;66.53;;;42.33;;
2570;SDS011;1295;51.130;6.732;2022-08-03T01:41:13;69.03;;;42.10;;
2570;SDS011;1295;51.130;6.732;2022-08-03T01:43:39;64.13;;;33.30;;
2570;SDS011;1295;51.130;6.732;2022-08-03T01:46:05;66.97;;;36.33;;
2570;SDS011;1295;51.130;6.732;2022-08-03T01:48:30;65.90;;;37.83;;
2570;SDS011;1295;51.130;6.732;2022-08-03T01:50:56;67.93;;;40.57;;
2570;SDS011;1295;51.130;6.732;2022-08-03T01:53:23;75.07;;;43.73;;
2570;SDS011;1295;51.130;6.732;2022-08-03T01:55:51;66.43;;;35.40;;
2570;SDS011;1295;51.130;6.732;2022-08-03T01:58:15;70.47;;;38.43;;
2570;SDS011;1295;51.130;6.732;2022-08-03T02:00:41;67.27;;;40.53;;
2570;SDS011;1295;51.130;6.732;2022-08-03T02:03:07;87.93;;;41.07;;
2570;SDS011;1295;51.130;6.732;2022-08-03T02:05:33;73.17;;;49.23;;
2570;SDS011;1295;51.130;6.732;2022-08-03T02:08:00;69.13;;;42.93;;
2570;SDS011;1295;51.130;6.732;2022-08-03T02:10:30;68.33;;;36.73;;
2570;SDS011;1295;51.130;6.732;2022-08-03T02:12:56;68.43;;;40.87;;
2570;SDS011;1295;51.130;6.732;2022-08-03T02:15:22;69.30;;;38.57;;
2570;SDS011;1295;51.130;6.732;2022-08-03T02:17:48;70.77;;;46.13;;
2570;SDS011;1295;51.130;6.732;2022-08-03T02:20:13;72.93;;;51.03;;
2570;SDS011;1295;51.130;6.732;2022-08-03T02:22:39;68.13;;;43.00;;
2570;SDS011;1295;51.130;6.732;2022-08-03T02:25:06;68.97;;;40.97;;
2570;SDS011;1295;51.130;6.732;2022-08-03T02:27:33;72.00;;;44.43;;
2570;SDS011;1295;51.130;6.732;2022-08-03T02:30:00;70.33;;;42.70;;
2570;SDS011;1295;51.130;6.732;2022-08-03T02:32:30;63.43;;;32.20;;
2570;SDS011;1295;51.130;6.732;2022-08-03T02:34:55;72.17;;;42.10;;
2570;SDS011;1295;51.130;6.732;2022-08-03T02:37:21;72.90;;;47.50;;
2570;SDS011;1295;51.130;6.732;2022-08-03T02:39:46;70.77;;;42.30;;
2570;SDS011;1295;51.130;6.732;2022-08-03T02:42:13;74.00;;;48.53;;
2570;SDS011;1295;51.130;6.732;2022-08-03T02:44:38;70.87;;;48.07;;
2570;SDS011;1295;51.130;6.732;2022-08-03T02:47:06;73.07;;;50.33;;
2570;SDS011;1295;51.130;6.732;2022-08-03T02:49:30;71.93;;;52.00;;
2570;SDS011;1295;51.130;6.732;2022-08-03T02:51:56;80.87;;;60.87;;
2570;SDS011;1295;51.130;6.732;2022-08-03T02:54:22;72.13;;;53.17;;
2570;SDS011;1295;51.130;6.732;2022-08-03T02:56:48;74.40;;;54.73;;
2570;SDS011;1295;51.130;6.732;2022-08-03T02:59:13;76.23;;;57.43;;
2570;SDS011;1295;51.130;6.732;2022-08-03T03:01:39;81.43;;;65.97;;
2570;SDS011;1295;51.130;6.732;2022-08-03T03:04:05;78.63;;;60.40;;
2570;SDS011;1295;51.130;6.732;2022-08-03T03:06:31;74.23;;;52.87;;
2570;SDS011;1295;51.130;6.732;2022-08-03T03:08:57;69.90;;;43.20;;
2570;SDS011;1295;51.130;6.732;2022-08-03T03:11:23;81.27;;;62.27;;
2570;SDS011;1295;51.130;6.732;2022-08-03T03:13:49;76.93;;;58.33;;
2570;SDS011;1295;51.130;6.732;2022-08-03T03:16:14;74.53;;;55.93;;
2570;SDS011;1295;51.130;6.732;2022-08-03T03:18:41;74.83;;;52.77;;
2570;SDS011;1295;51.130;6.732;2022-08-03T03:21:06;75.83;;;61.83;;
2570;SDS011;1295;51.130;6.732;2022-08-03T03:23:32;76.73;;;58.50;;
2570;SDS011;1295;51.130;6.732;2022-08-03T03:25:58;77.00;;;61.57;;
2570;SDS011;1295;51.130;6.732;2022-08-03T03:28:24;73.77;;;54.47;;
2570;SDS011;1295;51.130;6.732;2022-08-03T03:30:49;84.27;;;67.23;;
2570;SDS011;1295;51.130;6.732;2022-08-03T03:33:16;85.63;;;73.60;;
2570;SDS011;1295;51.130;6.732;2022-08-03T03:35:42;93.40;;;83.60;;
2570;SDS011;1295;51.130;6.732;2022-08-03T03:38:08;92.77;;;82.97;;
2570;SDS011;1295;51.130;6.732;2022-08-03T03:40:34;79.53;;;62.17;;
2570;SDS011;1295;51.130;6.732;2022-08-03T03:42:59;86.20;;;72.87;;
2570;SDS011;1295;51.130;6.732;2022-08-03T03:45:30;84.97;;;70.57;;
2570;SDS011;1295;51.130;6.732;2022-08-03T03:47:56;110.23;;;99.83;;
2570;SDS011;1295;51.130;6.732;2022-08-03T03:50:21;76.90;;;67.37;;
2570;SDS011;1295;51.130;6.732;2022-08-03T03:52:47;106.23;;;96.23;;
2570;SDS011;1295;51.130;6.732;2022-08-03T03:55:14;100.17;;;90.17;;
2570;SDS011;1295;51.130;6.732;2022-08-03T03:57:40;98.07;;;88.27;;
2570;SDS011;1295;51.130;6.732;2022-08-03T04:00:06;102.23;;;92.13;;
2570;SDS011;1295;51.130;6.732;2022-08-03T04:02:32;106.17;;;96.17;;
2570;SDS011;1295;51.130;6.732;2022-08-03T04:04:58;109.03;;;98.67;;
2570;SDS011;1295;51.130;6.732;2022-08-03T04:07:31;109.60;;;98.73;;
2570;SDS011;1295;51.130;6.732;2022-08-03T04:10:14;90.43;;;80.90;;
2570;SDS011;1295;51.130;6.732;2022-08-03T04:12:44;120.23;;;109.63;;
2570;SDS011;1295;51.130;6.732;2022-08-03T04:15:10;83.57;;;74.43;;
2570;SDS011;1295;51.130;6.732;2022-08-03T04:17:35;115.47;;;105.07;;
2570;SDS011;1295;51.130;6.732;2022-08-03T04:20:01;104.90;;;94.80;;
2570;SDS011;1295;51.130;6.732;2022-08-03T04:22:27;118.53;;;107.70;;
2570;SDS011;1295;51.130;6.732;2022-08-03T04:24:54;105.37;;;95.20;;
2570;SDS011;1295;51.130;6.732;2022-08-03T04:27:20;105.70;;;95.27;;
2570;SDS011;1295;51.130;6.732;2022-08-03T04:29:47;120.80;;;110.20;;
2570;SDS011;1295;51.130;6.732;2022-08-03T04:32:12;115.37;;;104.83;;
2570;SDS011;1295;51.130;6.732;2022-08-03T04:34:38;115.57;;;104.93;;
2570;SDS011;1295;51.130;6.732;2022-08-03T04:37:04;102.30;;;92.13;;
2570;SDS011;1295;51.130;6.732;2022-08-03T04:39:30;107.90;;;97.53;;
2570;SDS011;1295;51.130;6.732;2022-08-03T04:41:56;106.67;;;96.33;;
2570;SDS011;1295;51.130;6.732;2022-08-03T04:44:20;96.37;;;86.50;;
2570;SDS011;1295;51.130;6.732;2022-08-03T04:46:46;96.03;;;85.53;;
2570;SDS011;1295;51.130;6.732;2022-08-03T04:49:12;88.27;;;77.97;;
2570;SDS011;1295;51.130;6.732;2022-08-03T04:51:37;90.63;;;80.90;;
2570;SDS011;1295;51.130;6.732;2022-08-03T04:54:03;91.70;;;74.30;;
2570;SDS011;1295;51.130;6.732;2022-08-03T04:56:29;88.73;;;71.40;;
2570;SDS011;1295;51.130;6.732;2022-08-03T04:58:54;83.97;;;64.93;;
2570;SDS011;1295;51.130;6.732;2022-08-03T05:01:21;82.40;;;59.87;;
2570;SDS011;1295;51.130;6.732;2022-08-03T05:03:46;77.30;;;61.00;;
2570;SDS011;1295;51.130;6.732;2022-08-03T05:06:12;82.40;;;66.97;;
2570;SDS011;1295;51.130;6.732;2022-08-03T05:08:38;80.33;;;48.87;;
2570;SDS011;1295;51.130;6.732;2022-08-03T05:11:03;84.77;;;55.57;;
2570;SDS011;1295;51.130;6.732;2022-08-03T05:13:30;78.53;;;53.40;;
2570;SDS011;1295;51.130;6.732;2022-08-03T05:16:05;76.53;;;49.37;;
2570;SDS011;1295;51.130;6.732;2022-08-03T05:18:31;78.90;;;42.57;;
2570;SDS011;1295;51.130;6.732;2022-08-03T05:20:57;83.20;;;61.60;;
2570;SDS011;1295;51.130;6.732;2022-08-03T05:23:22;75.83;;;44.50;;
2570;SDS011;1295;51.130;6.732;2022-08-03T05:25:48;81.67;;;55.97;;
2570;SDS011;1295;51.130;6.732;2022-08-03T05:28:14;76.87;;;49.17;;
2570;SDS011;1295;51.130;6.732;2022-08-03T05:30:40;75.83;;;40.13;;
2570;SDS011;1295;51.130;6.732;2022-08-03T05:33:05;173.47;;;160.67;;
2570;SDS011;1295;51.130;6.732;2022-08-03T05:35:31;139.83;;;128.23;;
2570;SDS011;1295;51.130;6.732;2022-08-03T05:37:57;272.70;;;256.23;;
2570;SDS011;1295;51.130;6.732;2022-08-03T05:40:22;150.87;;;138.60;;
2570;SDS011;1295;51.130;6.732;2022-08-03T05:42:48;148.70;;;136.87;;
2570;SDS011;1295;51.130;6.732;2022-08-03T05:45:14;96.10;;;81.07;;
2570;SDS011;1295;51.130;6.732;2022-08-03T05:47:40;90.77;;;71.80;;
2570;SDS011;1295;51.130;6.732;2022-08-03T05:50:06;207.23;;;193.00;;
2570;SDS011;1295;51.130;6.732;2022-08-03T05:52:32;223.93;;;209.23;;
2570;SDS011;1295;51.130;6.732;2022-08-03T05:54:58;77.23;;;47.67;;
2570;SDS011;1295;51.130;6.732;2022-08-03T05:57:24;191.70;;;178.07;;
2570;SDS011;1295;51.130;6.732;2022-08-03T05:59:50;260.40;;;244.43;;
2570;SDS011;1295;51.130;6.732;2022-08-03T06:02:16;75.30;;;45.83;;
2570;SDS011;1295;51.130;6.732;2022-08-03T06:04:42;163.40;;;150.70;;
2570;SDS011;1295;51.130;6.732;2022-08-03T06:07:07;258.63;;;242.30;;
2570;SDS011;1295;51.130;6.732;2022-08-03T06:09:33;309.17;;;291.17;;
2570;SDS011;1295;51.130;6.732;2022-08-03T06:11:58;309.60;;;291.67;;
2570;SDS011;1295;51.130;6.732;2022-08-03T06:14:24;145.93;;;133.93;;
2570;SDS011;1295;51.130;6.732;2022-08-03T06:16:51;73.03;;;38.13;;
2570;SDS011;1295;51.130;6.732;2022-08-03T06:19:16;74.97;;;44.47;;
2570;SDS011;1295;51.130;6.732;2022-08-03T06:21:42;74.23;;;42.03;;
2570;SDS011;1295;51.130;6.732;2022-08-03T06:24:08;148.27;;;136.40;;
2570;SDS011;1295;51.130;6.732;2022-08-03T06:26:34;83.97;;;61.43;;
2570;SDS011;1295;51.130;6.732;2022-08-03T06:29:00;84.03;;;67.83;;
2570;SDS011;1295;51.130;6.732;2022-08-03T06:31:36;79.87;;;46.20;;
2570;SDS011;1295;51.130;6.732;2022-08-03T06:34:03;154.47;;;142.33;;
2570;SDS011;1295;51.130;6.732;2022-08-03T06:36:28;173.00;;;160.00;;
2570;SDS011;1295;51.130;6.732;2022-08-03T06:38:53;181.60;;;168.33;;
2570;SDS011;1295;51.130;6.732;2022-08-03T06:41:19;126.30;;;115.30;;
2570;SDS011;1295;51.130;6.732;2022-08-03T06:43:44;187.03;;;173.67;;
2570;SDS011;1295;51.130;6.732;2022-08-03T06:46:10;257.90;;;241.73;;
2570;SDS011;1295;51.130;6.732;2022-08-03T06:48:36;139.03;;;127.23;;
2570;SDS011;1295;51.130;6.732;2022-08-03T06:51:02;206.93;;;192.47;;
2570;SDS011;1295;51.130;6.732;2022-08-03T06:53:27;253.47;;;237.47;;
2570;SDS011;1295;51.130;6.732;2022-08-03T06:55:53;253.63;;;238.00;;
2570;SDS011;1295;51.130;6.732;2022-08-03T06:58:19;293.30;;;276.47;;
2570;SDS011;1295;51.130;6.732;2022-08-03T07:00:44;239.70;;;223.10;;
2570;SDS011;1295;51.130;6.732;2022-08-03T07:03:10;255.17;;;239.63;;
2570;SDS011;1295;51.130;6.732;2022-08-03T07:05:36;261.93;;;246.10;;
2570;SDS011;1295;51.130;6.732;2022-08-03T07:08:01;157.43;;;145.37;;
2570;SDS011;1295;51.130;6.732;2022-08-03T07:10:27;267.97;;;252.03;;
2570;SDS011;1295;51.130;6.732;2022-08-03T07:12:54;252.40;;;236.87;;
2570;SDS011;1295;51.130;6.732;2022-08-03T07:15:19;285.33;;;268.57;;
2570;SDS011;1295;51.130;6.732;2022-08-03T07:17:45;238.10;;;223.27;;
2570;SDS011;1295;51.130;6.732;2022-08-03T07:20:11;263.90;;;247.93;;
2570;SDS011;1295;51.130;6.732;2022-08-03T07:22:37;163.57;;;151.17;;
2570;SDS011;1295;51.130;6.732;2022-08-03T07:25:03;309.07;;;291.53;;
2570;SDS011;1295;51.130;6.732;2022-08-03T07:27:29;233.83;;;218.07;;
2570;SDS011;1295;51.130;6.732;2022-08-03T07:29:55;269.47;;;253.43;;
2570;SDS011;1295;51.130;6.732;2022-08-03T07:32:20;240.70;;;225.10;;
2570;SDS011;1295;51.130;6.732;2022-08-03T07:34:47;230.27;;;216.00;;
2570;SDS011;1295;51.130;6.732;2022-08-03T07:37:12;226.03;;;211.70;;
2570;SDS011;1295;51.130;6.732;2022-08-03T07:39:39;184.03;;;171.07;;
2570;SDS011;1295;51.130;6.732;2022-08-03T07:42:04;165.67;;;153.13;;
2570;SDS011;1295;51.130;6.732;2022-08-03T07:44:30;220.70;;;204.27;;
2570;SDS011;1295;51.130;6.732;2022-08-03T07:46:56;125.67;;;113.33;;
2570;SDS011;1295;51.130;6.732;2022-08-03T07:49:21;175.60;;;163.00;;
2570;SDS011;1295;51.130;6.732;2022-08-03T07:51:47;162.93;;;149.70;;
2570;SDS011;1295;51.130;6.732;2022-08-03T07:54:15;240.90;;;225.67;;
2570;SDS011;1295;51.130;6.732;2022-08-03T07:56:41;142.50;;;130.70;;
2570;SDS011;1295;51.130;6.732;2022-08-03T07:59:08;225.37;;;210.60;;
2570;SDS011;1295;51.130;6.732;2022-08-03T08:01:33;208.47;;;194.90;;
2570;SDS011;1295;51.130;6.732;2022-08-03T08:03:59;204.17;;;190.17;;
2570;SDS011;1295;51.130;6.732;2022-08-03T08:06:25;153.83;;;141.83;;
2570;SDS011;1295;51.130;6.732;2022-08-03T08:08:50;171.93;;;158.53;;
2570;SDS011;1295;51.130;6.732;2022-08-03T08:11:17;241.43;;;226.30;;
2570;SDS011;1295;51.130;6.732;2022-08-03T08:13:42;256.67;;;240.80;;
2570;SDS011;1295;51.130;6.732;2022-08-03T08:16:08;188.97;;;175.37;;
2570;SDS011;1295;51.130;6.732;2022-08-03T08:18:34;126.30;;;115.10;;
2570;SDS011;1295;51.130;6.732;2022-08-03T08:20:59;186.70;;;173.70;;
2570;SDS011;1295;51.130;6.732;2022-08-03T08:23:26;146.53;;;134.27;;
2570;SDS011;1295;51.130;6.732;2022-08-03T08:25:51;172.33;;;159.60;;
2570;SDS011;1295;51.130;6.732;2022-08-03T08:28:17;130.47;;;119.03;;
2570;SDS011;1295;51.130;6.732;2022-08-03T08:30:43;222.30;;;208.03;;
2570;SDS011;1295;51.130;6.732;2022-08-03T08:33:09;257.07;;;241.47;;
2570;SDS011;1295;51.130;6.732;2022-08-03T08:35:35;79.90;;;58.17;;
2570;SDS011;1295;51.130;6.732;2022-08-03T08:38:01;92.03;;;76.80;;
2570;SDS011;1295;51.130;6.732;2022-08-03T08:40:27;188.67;;;175.37;;
2570;SDS011;1295;51.130;6.732;2022-08-03T08:42:52;174.53;;;161.83;;
2570;SDS011;1295;51.130;6.732;2022-08-03T08:45:18;120.07;;;105.93;;
2570;SDS011;1295;51.130;6.732;2022-08-03T08:47:44;107.83;;;95.90;;
2570;SDS011;1295;51.130;6.732;2022-08-03T08:50:09;89.90;;;75.10;;
2570;SDS011;1295;51.130;6.732;2022-08-03T08:52:35;225.87;;;210.97;;
2570;SDS011;1295;51.130;6.732;2022-08-03T08:55:02;134.57;;;122.57;;
2570;SDS011;1295;51.130;6.732;2022-08-03T08:57:28;209.47;;;195.67;;
2570;SDS011;1295;51.130;6.732;2022-08-03T08:59:53;197.50;;;184.13;;
2570;SDS011;1295;51.130;6.732;2022-08-03T09:02:20;215.13;;;201.10;;
2570;SDS011;1295;51.130;6.732;2022-08-03T09:04:45;179.83;;;166.97;;
2570;SDS011;1295;51.130;6.732;2022-08-03T09:07:11;124.47;;;113.90;;
2570;SDS011;1295;51.130;6.732;2022-08-03T09:09:37;100.53;;;88.47;;
2570;SDS011;1295;51.130;6.732;2022-08-03T09:12:02;73.77;;;46.67;;
2570;SDS011;1295;51.130;6.732;2022-08-03T09:14:29;85.37;;;62.37;;
2570;SDS011;1295;51.130;6.732;2022-08-03T09:16:55;87.57;;;49.20;;
2570;SDS011;1295;51.130;6.732;2022-08-03T09:19:20;78.73;;;53.50;;
2570;SDS011;1295;51.130;6.732;2022-08-03T09:21:46;116.43;;;105.67;;
2570;SDS011;1295;51.130;6.732;2022-08-03T09:24:11;73.50;;;43.33;;
2570;SDS011;1295;51.130;6.732;2022-08-03T09:26:37;86.00;;;60.00;;
2570;SDS011;1295;51.130;6.732;2022-08-03T09:29:04;74.23;;;41.07;;
2570;SDS011;1295;51.130;6.732;2022-08-03T09:31:33;130.83;;;119.87;;
2570;SDS011;1295;51.130;6.732;2022-08-03T09:34:04;84.73;;;52.57;;
2570;SDS011;1295;51.130;6.732;2022-08-03T09:36:33;86.07;;;45.77;;
2570;SDS011;1295;51.130;6.732;2022-08-03T09:39:00;69.90;;;35.47;;
2570;SDS011;1295;51.130;6.732;2022-08-03T09:41:27;155.13;;;143.13;;
2570;SDS011;1295;51.130;6.732;2022-08-03T09:43:53;128.60;;;117.73;;
2570;SDS011;1295;51.130;6.732;2022-08-03T09:46:19;78.20;;;57.77;;
2570;SDS011;1295;51.130;6.732;2022-08-03T09:48:44;79.60;;;61.23;;
2570;SDS011;1295;51.130;6.732;2022-08-03T09:51:10;74.83;;;53.43;;
2570;SDS011;1295;51.130;6.732;2022-08-03T09:53:41;79.47;;;42.60;;
2570;SDS011;1295;51.130;6.732;2022-08-03T09:56:08;62.67;;;11.23;;
2570;SDS011;1295;51.130;6.732;2022-08-03T09:58:38;57.30;;;11.73;;
2570;SDS011;1295;51.130;6.732;2022-08-03T10:01:00;60.10;;;10.70;;
2570;SDS011;1295;51.130;6.732;2022-08-03T10:03:26;56.00;;;11.53;;
2570;SDS011;1295;51.130;6.732;2022-08-03T10:05:51;56.30;;;10.20;;
2570;SDS011;1295;51.130;6.732;2022-08-03T10:08:18;63.77;;;11.10;;
2570;SDS011;1295;51.130;6.732;2022-08-03T10:10:43;55.40;;;9.13;;
2570;SDS011;1295;51.130;6.732;2022-08-03T10:13:10;57.23;;;7.50;;
2570;SDS011;1295;51.130;6.732;2022-08-03T10:15:35;57.83;;;11.60;;
2570;SDS011;1295;51.130;6.732;2022-08-03T10:18:01;55.93;;;8.57;;
2570;SDS011;1295;51.130;6.732;2022-08-03T10:20:26;55.37;;;8.10;;
2570;SDS011;1295;51.130;6.732;2022-08-03T10:22:52;55.67;;;9.53;;
2570;SDS011;1295;51.130;6.732;2022-08-03T10:25:18;56.10;;;8.47;;
2570;SDS011;1295;51.130;6.732;2022-08-03T10:27:46;59.27;;;9.60;;
2570;SDS011;1295;51.130;6.732;2022-08-03T10:30:10;58.43;;;11.77;;
2570;SDS011;1295;51.130;6.732;2022-08-03T10:32:42;59.30;;;10.47;;
2570;SDS011;1295;51.130;6.732;2022-08-03T10:35:10;57.93;;;12.07;;
2570;SDS011;1295;51.130;6.732;2022-08-03T10:37:36;60.50;;;13.10;;
2570;SDS011;1295;51.130;6.732;2022-08-03T10:40:01;55.83;;;13.70;;
2570;SDS011;1295;51.130;6.732;2022-08-03T10:42:28;56.40;;;11.73;;
2570;SDS011;1295;51.130;6.732;2022-08-03T10:45:11;58.47;;;10.57;;
2570;SDS011;1295;51.130;6.732;2022-08-03T10:47:34;54.20;;;8.70;;
2570;SDS011;1295;51.130;6.732;2022-08-03T10:50:00;55.40;;;9.17;;
2570;SDS011;1295;51.130;6.732;2022-08-03T10:52:25;54.67;;;7.43;;
2570;SDS011;1295;51.130;6.732;2022-08-03T10:54:52;57.90;;;7.60;;
2570;SDS011;1295;51.130;6.732;2022-08-03T11:00:02;56.30;;;9.97;;
2570;SDS011;1295;51.130;6.732;2022-08-03T11:03:00;55.83;;;7.10;;
2570;SDS011;1295;51.130;6.732;2022-08-03T11:05:25;56.77;;;8.20;;
2570;SDS011;1295;51.130;6.732;2022-08-03T11:08:16;62.43;;;12.17;;
2570;SDS011;1295;51.130;6.732;2022-08-03T11:12:57;56.47;;;10.23;;
2570;SDS011;1295;51.130;6.732;2022-08-03T11:15:30;56.60;;;6.80;;
2570;SDS011;1295;51.130;6.732;2022-08-03T11:17:45;55.27;;;8.07;;
2570;SDS011;1295;51.130;6.732;2022-08-03T11:20:10;56.70;;;8.70;;
2570;SDS011;1295;51.130;6.732;2022-08-03T11:22:51;54.97;;;6.43;;
2570;SDS011;1295;51.130;6.732;2022-08-03T11:25:17;54.83;;;7.43;;
2570;SDS011;1295;51.130;6.732;2022-08-03T11:27:42;53.80;;;7.53;;
2570;SDS011;1295;51.130;6.732;2022-08-03T11:30:10;55.30;;;7.20;;
2570;SDS011;1295;51.130;6.732;2022-08-03T11:32:52;59.73;;;8.90;;
2570;SDS011;1295;51.130;6.732;2022-08-03T11:35:21;54.10;;;7.80;;
2570;SDS011;1295;51.130;6.732;2022-08-03T11:38:01;56.93;;;9.50;;
2570;SDS011;1295;51.130;6.732;2022-08-03T11:40:37;55.00;;;6.70;;
2570;SDS011;1295;51.130;6.732;2022-08-03T11:43:43;59.30;;;7.37;;
2570;SDS011;1295;51.130;6.732;2022-08-03T11:46:10;59.53;;;7.87;;
2570;SDS011;1295;51.130;6.732;2022-08-03T11:48:38;53.70;;;8.23;;
2570;SDS011;1295;51.130;6.732;2022-08-03T11:51:05;54.67;;;8.20;;
2570;SDS011;1295;51.130;6.732;2022-08-03T11:53:32;58.67;;;8.60;;
2570;SDS011;1295;51.130;6.732;2022-08-03T11:56:02;54.73;;;5.93;;
2570;SDS011;1295;51.130;6.732;2022-08-03T11:58:29;55.50;;;7.10;;
2570;SDS011;1295;51.130;6.732;2022-08-03T12:03:30;54.30;;;5.40;;
2570;SDS011;1295;51.130;6.732;2022-08-03T12:05:52;52.90;;;5.33;;
2570;SDS011;1295;51.130;6.732;2022-08-03T12:08:36;57.10;;;9.47;;
2570;SDS011;1295;51.130;6.732;2022-08-03T12:11:02;57.20;;;11.03;;
2570;SDS011;1295;51.130;6.732;2022-08-03T12:13:35;57.07;;;8.23;;
2570;SDS011;1295;51.130;6.732;2022-08-03T12:15:54;56.00;;;7.47;;
2570;SDS011;1295;51.130;6.732;2022-08-03T12:18:20;62.23;;;7.80;;
2570;SDS011;1295;51.130;6.732;2022-08-03T12:20:45;56.70;;;7.13;;
2570;SDS011;1295;51.130;6.732;2022-08-03T12:23:11;54.10;;;7.30;;
2570;SDS011;1295;51.130;6.732;2022-08-03T12:25:37;61.87;;;7.80;;
2570;SDS011;1295;51.130;6.732;2022-08-03T12:28:08;53.27;;;6.27;;
2570;SDS011;1295;51.130;6.732;2022-08-03T12:30:37;57.87;;;7.10;;
2570;SDS011;1295;51.130;6.732;2022-08-03T12:35:37;54.77;;;7.63;;
2570;SDS011;1295;51.130;6.732;2022-08-03T12:38:02;63.40;;;9.07;;
2570;SDS011;1295;51.130;6.732;2022-08-03T12:40:28;55.27;;;7.07;;
2570;SDS011;1295;51.130;6.732;2022-08-03T12:42:54;69.17;;;19.20;;
2570;SDS011;1295;51.130;6.732;2022-08-03T12:45:24;57.03;;;6.67;;
2570;SDS011;1295;51.130;6.732;2022-08-03T12:47:53;54.93;;;6.70;;
2570;SDS011;1295;51.130;6.732;2022-08-03T12:50:22;53.50;;;6.53;;
2570;SDS011;1295;51.130;6.732;2022-08-03T12:52:49;54.83;;;6.00;;
2570;SDS011;1295;51.130;6.732;2022-08-03T12:55:18;56.67;;;6.90;;
2570;SDS011;1295;51.130;6.732;2022-08-03T12:57:41;59.10;;;5.70;;
2570;SDS011;1295;51.130;6.732;2022-08-03T13:00:09;55.30;;;7.10;;
2570;SDS011;1295;51.130;6.732;2022-08-03T13:02:34;55.17;;;7.03;;
2570;SDS011;1295;51.130;6.732;2022-08-03T13:05:00;58.10;;;5.40;;
2570;SDS011;1295;51.130;6.732;2022-08-03T13:07:25;54.77;;;6.33;;
2570;SDS011;1295;51.130;6.732;2022-08-03T13:09:52;55.20;;;7.17;;
2570;SDS011;1295;51.130;6.732;2022-08-03T13:12:19;54.50;;;6.43;;
2570;SDS011;1295;51.130;6.732;2022-08-03T13:14:45;54.83;;;6.80;;
2570;SDS011;1295;51.130;6.732;2022-08-03T13:17:11;54.43;;;6.27;;
2570;SDS011;1295;51.130;6.732;2022-08-03T13:19:36;59.40;;;8.10;;
2570;SDS011;1295;51.130;6.732;2022-08-03T13:24:37;55.87;;;8.37;;
2570;SDS011;1295;51.130;6.732;2022-08-03T13:27:03;54.13;;;5.80;;
2570;SDS011;1295;51.130;6.732;2022-08-03T13:29:30;53.00;;;9.83;;
2570;SDS011;1295;51.130;6.732;2022-08-03T13:31:55;56.73;;;7.27;;
2570;SDS011;1295;51.130;6.732;2022-08-03T13:34:22;61.43;;;6.07;;
2570;SDS011;1295;51.130;6.732;2022-08-03T13:36:47;53.30;;;6.10;;
2570;SDS011;1295;51.130;6.732;2022-08-03T13:39:13;53.90;;;11.87;;
2570;SDS011;1295;51.130;6.732;2022-08-03T13:41:39;55.90;;;5.97;;
2570;SDS011;1295;51.130;6.732;2022-08-03T13:44:04;56.40;;;7.70;;
2570;SDS011;1295;51.130;6.732;2022-08-03T13:46:30;58.60;;;13.90;;
2570;SDS011;1295;51.130;6.732;2022-08-03T13:48:56;55.97;;;6.87;;
2570;SDS011;1295;51.130;6.732;2022-08-03T13:51:22;61.00;;;9.23;;
2570;SDS011;1295;51.130;6.732;2022-08-03T13:53:48;56.87;;;8.03;;
2570;SDS011;1295;51.130;6.732;2022-08-03T13:56:14;58.00;;;7.57;;
2570;SDS011;1295;51.130;6.732;2022-08-03T13:58:40;53.57;;;5.43;;
2570;SDS011;1295;51.130;6.732;2022-08-03T14:01:05;53.67;;;6.60;;
2570;SDS011;1295;51.130;6.732;2022-08-03T14:03:31;56.93;;;11.03;;
2570;SDS011;1295;51.130;6.732;2022-08-03T14:05:57;63.87;;;24.40;;
2570;SDS011;1295;51.130;6.732;2022-08-03T14:08:23;53.60;;;6.63;;
2570;SDS011;1295;51.130;6.732;2022-08-03T14:10:48;53.27;;;7.03;;
2570;SDS011;1295;51.130;6.732;2022-08-03T14:13:14;53.30;;;6.23;;
2570;SDS011;1295;51.130;6.732;2022-08-03T14:15:41;106.27;;;15.60;;
2570;SDS011;1295;51.130;6.732;2022-08-03T14:18:06;53.00;;;7.13;;
2570;SDS011;1295;51.130;6.732;2022-08-03T14:20:32;62.13;;;7.40;;
2570;SDS011;1295;51.130;6.732;2022-08-03T14:22:57;53.60;;;7.30;;
2570;SDS011;1295;51.130;6.732;2022-08-03T14:25:24;52.93;;;5.40;;
2570;SDS011;1295;51.130;6.732;2022-08-03T14:27:49;55.97;;;10.60;;
2570;SDS011;1295;51.130;6.732;2022-08-03T14:30:16;56.37;;;7.40;;
2570;SDS011;1295;51.130;6.732;2022-08-03T14:32:42;53.87;;;8.60;;
2570;SDS011;1295;51.130;6.732;2022-08-03T14:35:08;72.13;;;10.37;;
2570;SDS011;1295;51.130;6.732;2022-08-03T14:37:33;57.03;;;9.30;;
2570;SDS011;1295;51.130;6.732;2022-08-03T14:39:59;56.17;;;7.37;;
2570;SDS011;1295;51.130;6.732;2022-08-03T14:42:25;55.10;;;10.13;;
2570;SDS011;1295;51.130;6.732;2022-08-03T14:44:57;54.70;;;6.57;;
2570;SDS011;1295;51.130;6.732;2022-08-03T14:47:24;54.63;;;6.20;;
2570;SDS011;1295;51.130;6.732;2022-08-03T14:49:50;57.03;;;10.23;;
2570;SDS011;1295;51.130;6.732;2022-08-03T14:52:15;54.43;;;11.93;;
2570;SDS011;1295;51.130;6.732;2022-08-03T14:54:42;59.00;;;7.30;;
2570;SDS011;1295;51.130;6.732;2022-08-03T14:57:07;56.07;;;11.00;;
2570;SDS011;1295;51.130;6.732;2022-08-03T14:59:34;54.00;;;9.30;;